Time;durP1;ratioP1;P1;durP2;ratioP2;P2;SDS_P1;SDS_P2;PMS_P1;PMS_P2;Temp;Humidity;BMP_temperature;BMP_pressure;BME280_temperature;BME280_humidity;BME280_pressure;Samples;Min_cycle;Max_cycle;Signal;HPM_P1;HPM_P2
2023/10/03 00:01:10;;;;;;;24.15;10.82;;;;;;;;;;4916742;29;20055;-59
2023/10/03 00:03:35;;;;;;;21.92;10.43;;;;;;;;;;4936781;29;20029;-58
2023/10/03 00:06:00;;;;;;;23.33;10.15;;;;;;;;;;4944710;29;20111;-60
2023/10/03 00:08:26;;;;;;;23.23;10.40;;;;;;;;;;4918014;29;20039;-59
2023/10/03 00:10:52;;;;;;;23.35;10.68;;;;;;;;;;4918922;29;20473;-60
2023/10/03 00:13:19;;;;;;;22.55;9.88;;;;;;;;;;4916111;29;20044;-60
2023/10/03 00:15:45;;;;;;;25.27;9.93;;;;;;;;;;4915947;29;20123;-60
2023/10/03 00:18:11;;;;;;;25.30;9.75;;;;;;;;;;4915261;29;20062;-60
2023/10/03 00:20:37;;;;;;;24.00;10.77;;;;;;;;;;4916209;29;20055;-60
2023/10/03 00:23:04;;;;;;;27.90;10.38;;;;;;;;;;4915211;29;20469;-60
2023/10/03 00:25:30;;;;;;;22.25;9.32;;;;;;;;;;4899082;29;20032;-60
2023/10/03 00:27:59;;;;;;;23.95;10.40;;;;;;;;;;4897463;29;20032;-60
2023/10/03 00:30:25;;;;;;;24.17;9.60;;;;;;;;;;4897130;29;20039;-59
2023/10/03 00:32:52;;;;;;;20.13;9.30;;;;;;;;;;4914465;29;20044;-60
2023/10/03 00:35:21;;;;;;;21.17;9.98;;;;;;;;;;4915094;29;20044;-60
2023/10/03 00:37:50;;;;;;;22.52;9.95;;;;;;;;;;4914217;29;20481;-60
2023/10/03 00:42:54;;;;;;;23.08;10.07;;;;;;;;;;4916199;29;20131;-60
2023/10/03 00:45:21;;;;;;;22.10;10.00;;;;;;;;;;4913336;29;20036;-60
2023/10/03 00:47:58;;;;;;;23.85;10.60;;;;;;;;;;4917217;29;20047;-60
2023/10/03 00:50:27;;;;;;;20.83;9.27;;;;;;;;;;4914837;29;20028;-59
2023/10/03 00:52:58;;;;;;;22.40;9.40;;;;;;;;;;4914478;29;20036;-60
2023/10/03 00:55:28;;;;;;;21.20;9.63;;;;;;;;;;4917013;29;20040;-61
2023/10/03 00:58:07;;;;;;;22.88;9.55;;;;;;;;;;4897773;29;20129;-59
2023/10/03 01:00:37;;;;;;;20.40;9.20;;;;;;;;;;4914644;29;20040;-60
2023/10/03 01:03:03;;;;;;;;;;;;;;;;;;4913920;29;20036;-60
2023/10/03 01:05:29;;;;;;;22.45;9.88;;;;;;;;;;4897252;29;19919;-60
2023/10/03 01:07:55;;;;;;;21.30;10.00;;;;;;;;;;4913689;29;20453;-60
2023/10/03 01:10:21;;;;;;;21.35;9.65;;;;;;;;;;4906959;29;20055;-60
2023/10/03 01:12:48;;;;;;;23.40;10.27;;;;;;;;;;4914513;29;20089;-59
2023/10/03 01:15:18;;;;;;;23.55;9.90;;;;;;;;;;4924940;29;20247;-60
2023/10/03 01:17:48;;;;;;;21.08;9.73;;;;;;;;;;4898279;29;20047;-59
2023/10/03 01:20:23;;;;;;;21.10;9.90;;;;;;;;;;4897194;29;20104;-60
2023/10/03 01:22:52;;;;;;;23.00;10.52;;;;;;;;;;4915268;29;20067;-60
2023/10/03 01:25:17;;;;;;;20.38;9.38;;;;;;;;;;4914937;29;20114;-59
2023/10/03 01:27:44;;;;;;;24.90;10.95;;;;;;;;;;4914805;29;20131;-59
2023/10/03 01:30:12;;;;;;;25.60;10.63;;;;;;;;;;4933096;29;20040;-61
2023/10/03 01:32:42;;;;;;;23.20;10.32;;;;;;;;;;4933116;29;20476;-60
2023/10/03 01:35:11;;;;;;;21.90;10.00;;;;;;;;;;4914206;29;20060;-59
2023/10/03 01:37:38;;;;;;;21.60;10.45;;;;;;;;;;4915724;29;20032;-59
2023/10/03 01:40:08;;;;;;;22.77;9.63;;;;;;;;;;4915790;29;20075;-59
2023/10/03 01:42:34;;;;;;;19.58;9.82;;;;;;;;;;4925485;29;20426;-59
2023/10/03 01:44:59;;;;;;;22.08;9.63;;;;;;;;;;4928447;29;20040;-60
2023/10/03 01:47:25;;;;;;;22.90;10.35;;;;;;;;;;4919952;29;20032;-60
2023/10/03 01:49:51;;;;;;;23.17;10.27;;;;;;;;;;4911740;29;20040;-60
2023/10/03 01:52:17;;;;;;;23.67;9.98;;;;;;;;;;4928461;29;20624;-60
2023/10/03 01:54:43;;;;;;;22.23;9.52;;;;;;;;;;4932775;29;20039;-59
2023/10/03 01:57:08;;;;;;;23.52;10.27;;;;;;;;;;4916890;29;20044;-60
2023/10/03 01:59:34;;;;;;;22.25;9.73;;;;;;;;;;4932798;29;20043;-59
2023/10/03 02:02:00;;;;;;;21.13;10.00;;;;;;;;;;4935923;29;20032;-60
2023/10/03 02:04:28;;;;;;;20.52;9.88;;;;;;;;;;4909373;29;20165;-60
2023/10/03 02:06:54;;;;;;;24.13;10.13;;;;;;;;;;4910814;29;20044;-60
2023/10/03 02:09:21;;;;;;;22.98;10.02;;;;;;;;;;4933949;29;20079;-59
2023/10/03 02:11:49;;;;;;;21.90;9.20;;;;;;;;;;4932333;29;20123;-59
2023/10/03 02:14:14;;;;;;;29.38;10.45;;;;;;;;;;4931847;29;20038;-60
2023/10/03 02:16:44;;;;;;;23.10;9.50;;;;;;;;;;4922579;29;20036;-60
2023/10/03 02:19:09;;;;;;;22.38;9.50;;;;;;;;;;4918080;29;20091;-59
2023/10/03 02:21:35;;;;;;;23.25;9.98;;;;;;;;;;4933290;29;20043;-59
2023/10/03 02:24:00;;;;;;;24.08;10.02;;;;;;;;;;4916865;29;20057;-60
2023/10/03 02:26:28;;;;;;;20.63;9.45;;;;;;;;;;4917971;29;20076;-60
2023/10/03 02:28:54;;;;;;;22.15;9.60;;;;;;;;;;4929482;29;20468;-59
2023/10/03 02:31:20;;;;;;;20.50;9.25;;;;;;;;;;4935009;29;20028;-59
2023/10/03 02:33:46;;;;;;;22.88;9.40;;;;;;;;;;4935124;29;20043;-60
2023/10/03 02:36:12;;;;;;;22.83;10.38;;;;;;;;;;4933752;29;20123;-60
2023/10/03 02:38:38;;;;;;;24.40;9.73;;;;;;;;;;4935860;29;20032;-60
2023/10/03 02:41:06;;;;;;;25.20;9.63;;;;;;;;;;4934530;29;20038;-59
2023/10/03 02:43:43;;;;;;;22.05;9.27;;;;;;;;;;4932331;29;20130;-59
2023/10/03 02:46:12;;;;;;;21.88;9.85;;;;;;;;;;4927850;29;20460;-59
2023/10/03 02:48:38;;;;;;;21.92;9.02;;;;;;;;;;4933829;29;20035;-59
2023/10/03 02:51:06;;;;;;;19.50;8.82;;;;;;;;;;4931650;29;20031;-59
2023/10/03 02:53:31;;;;;;;20.05;9.55;;;;;;;;;;4930010;29;20031;-59
2023/10/03 02:55:58;;;;;;;19.50;9.43;;;;;;;;;;4934540;29;20096;-59
2023/10/03 02:58:23;;;;;;;21.13;9.30;;;;;;;;;;4930744;29;20027;-59
2023/10/03 03:00:56;;;;;;;22.48;9.13;;;;;;;;;;4935655;29;20400;-59
2023/10/03 03:03:23;;;;;;;20.35;9.13;;;;;;;;;;4934896;29;20103;-60
2023/10/03 03:05:49;;;;;;;20.85;8.75;;;;;;;;;;4929969;29;20063;-59
2023/10/03 03:10:57;;;;;;;17.25;8.30;;;;;;;;;;4917165;29;20056;-59
2023/10/03 03:13:24;;;;;;;20.10;9.05;;;;;;;;;;4913861;29;20047;-59
2023/10/03 03:15:54;;;;;;;19.13;8.82;;;;;;;;;;4899205;29;20036;-58
2023/10/03 03:18:20;;;;;;;20.30;8.77;;;;;;;;;;4915091;29;20115;-60
2023/10/03 03:20:58;;;;;;;19.85;8.27;;;;;;;;;;4899727;29;20048;-58
2023/10/03 03:23:35;;;;;;;17.50;7.88;;;;;;;;;;4897637;29;20065;-59
2023/10/03 03:28:44;;;;;;;19.25;8.63;;;;;;;;;;4915106;29;20417;-59
2023/10/03 03:33:46;;;;;;;21.13;8.23;;;;;;;;;;4915960;29;20047;-58
2023/10/03 03:36:20;;;;;;;20.00;8.00;;;;;;;;;;4897842;29;20041;-60
2023/10/03 03:38:47;;;;;;;16.60;7.65;;;;;;;;;;4898885;29;20032;-58
2023/10/03 03:41:13;;;;;;;19.70;8.23;;;;;;;;;;4898661;29;20032;-60
2023/10/03 03:43:39;;;;;;;17.73;7.88;;;;;;;;;;4898500;29;20492;-59
2023/10/03 03:46:05;;;;;;;19.00;8.27;;;;;;;;;;4912733;29;20056;-59
2023/10/03 03:48:34;;;;;;;18.02;7.70;;;;;;;;;;4916044;29;20036;-59
2023/10/03 03:51:00;;;;;;;18.05;7.18;;;;;;;;;;4914611;29;20114;-58
2023/10/03 03:53:25;;;;;;;18.27;7.40;;;;;;;;;;4915159;29;20474;-60
2023/10/03 03:55:51;;;;;;;17.25;7.40;;;;;;;;;;4915445;29;20040;-60
2023/10/03 03:58:18;;;;;;;18.40;7.28;;;;;;;;;;4914043;29;20071;-59
2023/10/03 04:00:49;;;;;;;16.70;7.50;;;;;;;;;;4915209;29;20048;-60
2023/10/03 04:03:15;;;;;;;19.67;7.90;;;;;;;;;;4914729;29;20039;-60
2023/10/03 04:05:41;;;;;;;19.45;7.55;;;;;;;;;;4898990;29;20032;-59
2023/10/03 04:08:07;;;;;;;19.25;7.65;;;;;;;;;;4912639;29;20032;-59
2023/10/03 04:10:36;;;;;;;16.60;7.40;;;;;;;;;;4909621;29;20051;-59
2023/10/03 04:13:05;;;;;;;22.58;7.57;;;;;;;;;;4932522;29;20472;-60
2023/10/03 04:15:31;;;;;;;17.20;7.97;;;;;;;;;;4915213;29;20043;-59
2023/10/03 04:17:57;;;;;;;19.00;8.18;;;;;;;;;;4934203;29;20038;-59
2023/10/03 04:22:51;;;;;;;21.90;7.85;;;;;;;;;;4932505;29;20119;-59
2023/10/03 04:25:20;;;;;;;17.77;7.13;;;;;;;;;;4933665;29;20476;-59
2023/10/03 04:27:51;;;;;;;15.20;7.38;;;;;;;;;;4917548;29;20471;-60
2023/10/03 04:30:19;;;;;;;;;;;;;;;;;;4931896;29;20091;-60
2023/10/03 04:32:47;;;;;;;18.05;7.55;;;;;;;;;;4930498;29;19919;-61
2023/10/03 04:35:14;;;;;;;17.63;6.72;;;;;;;;;;4932162;29;20107;-60
2023/10/03 04:37:42;;;;;;;16.52;7.20;;;;;;;;;;4933353;29;20428;-59
2023/10/03 04:40:22;;;;;;;21.30;7.32;;;;;;;;;;4931071;29;20067;-60
2023/10/03 04:42:51;;;;;;;14.32;6.88;;;;;;;;;;4925134;29;20057;-60
2023/10/03 04:45:19;;;;;;;14.00;6.53;;;;;;;;;;4931300;29;20032;-60
2023/10/03 04:47:45;;;;;;;16.85;7.00;;;;;;;;;;4914161;29;20438;-60
2023/10/03 04:50:11;;;;;;;19.23;7.72;;;;;;;;;;4933024;29;20027;-60
2023/10/03 04:52:41;;;;;;;15.43;7.20;;;;;;;;;;4914994;29;20079;-60
2023/10/03 04:55:07;;;;;;;16.88;7.03;;;;;;;;;;4902268;29;20035;-60
2023/10/03 04:57:33;;;;;;;14.43;6.82;;;;;;;;;;4930981;29;20099;-60
2023/10/03 04:59:59;;;;;;;21.85;7.75;;;;;;;;;;4934187;29;20044;-60
2023/10/03 05:02:30;;;;;;;17.05;7.07;;;;;;;;;;4930246;29;20028;-60
2023/10/03 05:04:56;;;;;;;17.58;7.43;;;;;;;;;;4933281;29;20043;-60
2023/10/03 05:07:25;;;;;;;18.50;6.88;;;;;;;;;;4930707;29;20091;-59
2023/10/03 05:09:51;;;;;;;16.90;7.90;;;;;;;;;;4892454;29;1144642;-60
2023/10/03 05:12:20;;;;;;;17.42;6.85;;;;;;;;;;4931830;29;20035;-60
2023/10/03 05:14:47;;;;;;;17.15;7.45;;;;;;;;;;4934665;29;20051;-60
2023/10/03 05:17:14;;;;;;;16.40;7.70;;;;;;;;;;4933701;29;20492;-60
2023/10/03 05:19:41;;;;;;;17.42;7.45;;;;;;;;;;4932448;29;20035;-60
2023/10/03 05:22:08;;;;;;;17.25;6.88;;;;;;;;;;4931544;29;20122;-60
2023/10/03 05:24:34;;;;;;;14.80;6.35;;;;;;;;;;4932198;29;20036;-59
2023/10/03 05:27:03;;;;;;;18.02;7.03;;;;;;;;;;4915140;29;20043;-61
2023/10/03 05:29:32;;;;;;;18.83;7.50;;;;;;;;;;4933865;29;20032;-59
2023/10/03 05:32:00;;;;;;;16.05;7.40;;;;;;;;;;4920630;29;20036;-59
2023/10/03 05:34:25;;;;;;;18.88;7.07;;;;;;;;;;4936297;29;20107;-59
2023/10/03 05:36:51;;;;;;;16.58;6.93;;;;;;;;;;4936341;29;20238;-59
2023/10/03 05:39:16;;;;;;;16.63;6.95;;;;;;;;;;4935516;29;20035;-60
2023/10/03 05:41:42;;;;;;;18.55;7.28;;;;;;;;;;4919960;29;20035;-58
2023/10/03 05:44:11;;;;;;;16.98;6.82;;;;;;;;;;4937953;29;20055;-60
2023/10/03 05:46:39;;;;;;;18.15;7.15;;;;;;;;;;4937267;29;20035;-60
2023/10/03 05:49:05;;;;;;;19.40;7.50;;;;;;;;;;4920150;29;20046;-60
2023/10/03 05:51:30;;;;;;;18.88;7.55;;;;;;;;;;4935385;29;20031;-60
2023/10/03 05:53:55;;;;;;;15.38;6.25;;;;;;;;;;4936933;29;20096;-59
2023/10/03 05:56:21;;;;;;;17.92;7.43;;;;;;;;;;4934851;29;20572;-60
2023/10/03 05:58:47;;;;;;;17.55;7.78;;;;;;;;;;4937012;29;20032;-60
2023/10/03 06:01:13;;;;;;;16.02;7.15;;;;;;;;;;4936206;29;20046;-60
2023/10/03 06:03:39;;;;;;;17.85;7.45;;;;;;;;;;4937005;29;20046;-59
2023/10/03 06:06:07;;;;;;;17.02;7.68;;;;;;;;;;4934800;29;20035;-60
2023/10/03 06:08:33;;;;;;;17.38;7.47;;;;;;;;;;4927068;29;20233;-60
2023/10/03 06:11:00;;;;;;;17.48;7.45;;;;;;;;;;4918284;29;20159;-61
2023/10/03 06:13:26;;;;;;;16.17;7.18;;;;;;;;;;4921367;29;20130;-60
2023/10/03 06:15:52;;;;;;;15.80;7.70;;;;;;;;;;4939083;29;20119;-60
2023/10/03 06:18:19;;;;;;;16.75;6.97;;;;;;;;;;4936683;29;20157;-60
2023/10/03 06:20:45;;;;;;;13.90;6.30;;;;;;;;;;4929619;29;20039;-60
2023/10/03 06:23:10;;;;;;;16.60;7.85;;;;;;;;;;4936802;29;20040;-60
2023/10/03 06:25:35;;;;;;;19.02;7.63;;;;;;;;;;4936413;29;20032;-61
2023/10/03 06:28:04;;;;;;;16.50;7.47;;;;;;;;;;4935993;29;20031;-60
2023/10/03 06:30:33;;;;;;;16.80;7.40;;;;;;;;;;4935370;29;20085;-59
2023/10/03 06:32:58;;;;;;;15.93;7.00;;;;;;;;;;4936376;29;20031;-60
2023/10/03 06:35:24;;;;;;;16.65;7.25;;;;;;;;;;4936581;29;20054;-61
2023/10/03 06:37:50;;;;;;;13.75;6.25;;;;;;;;;;4919874;29;20084;-58
2023/10/03 06:40:16;;;;;;;21.83;8.40;;;;;;;;;;4935851;29;20035;-59
2023/10/03 06:42:41;;;;;;;16.15;6.72;;;;;;;;;;4936560;29;20035;-60
2023/10/03 06:45:13;;;;;;;19.98;7.65;;;;;;;;;;4939110;29;20118;-61
2023/10/03 06:47:39;;;;;;;17.35;6.80;;;;;;;;;;4944250;29;20050;-60
2023/10/03 06:50:06;;;;;;;13.13;6.32;;;;;;;;;;4945549;29;20031;-58
2023/10/03 06:52:32;;;;;;;15.55;6.35;;;;;;;;;;4943143;29;20297;-60
2023/10/03 06:54:58;;;;;;;13.02;5.07;;;;;;;;;;4955765;29;20028;-58
2023/10/03 06:57:24;;;;;;;15.43;6.43;;;;;;;;;;4955059;29;20036;-59
2023/10/03 06:59:50;;;;;;;13.30;6.05;;;;;;;;;;4890414;29;20096;-59
2023/10/03 07:02:15;;;;;;;14.48;5.72;;;;;;;;;;4917201;29;20461;-58
2023/10/03 07:04:41;;;;;;;11.65;4.97;;;;;;;;;;4936115;29;20063;-59
2023/10/03 07:07:07;;;;;;;13.18;6.28;;;;;;;;;;4936321;29;20028;-57
2023/10/03 07:09:33;;;;;;;12.77;4.85;;;;;;;;;;4938578;29;20093;-58
2023/10/03 07:11:59;;;;;;;11.85;5.32;;;;;;;;;;4897397;29;20032;-60
2023/10/03 07:14:26;;;;;;;12.25;5.25;;;;;;;;;;4916270;29;20165;-59
2023/10/03 07:16:52;;;;;;;12.43;5.75;;;;;;;;;;4917381;29;20028;-59
2023/10/03 07:19:20;;;;;;;10.68;5.25;;;;;;;;;;4916224;29;20039;-60
2023/10/03 07:21:51;;;;;;;11.32;4.93;;;;;;;;;;4932032;29;20032;-59
2023/10/03 07:24:17;;;;;;;13.15;5.10;;;;;;;;;;4925158;29;20447;-60
2023/10/03 07:26:43;;;;;;;12.45;4.40;;;;;;;;;;4917216;29;20036;-59
2023/10/03 07:29:08;;;;;;;7.05;3.35;;;;;;;;;;4923229;29;20031;-60
2023/10/03 07:31:37;;;;;;;10.07;4.47;;;;;;;;;;4918043;29;20604;-59
2023/10/03 07:34:03;;;;;;;11.48;4.53;;;;;;;;;;4935970;29;20088;-60
2023/10/03 07:36:28;;;;;;;7.35;3.47;;;;;;;;;;4922443;29;20107;-60
2023/10/03 07:38:54;;;;;;;7.72;3.97;;;;;;;;;;4898065;29;20116;-60
2023/10/03 07:41:21;;;;;;;7.80;3.80;;;;;;;;;;4907761;29;20071;-60
2023/10/03 07:43:47;;;;;;;9.25;3.75;;;;;;;;;;4921627;29;20477;-60
2023/10/03 07:46:23;;;;;;;9.13;3.58;;;;;;;;;;4916165;29;20027;-60
2023/10/03 07:48:52;;;;;;;15.00;3.75;;;;;;;;;;4913893;29;20119;-60
2023/10/03 07:51:19;;;;;;;7.10;3.40;;;;;;;;;;4915331;29;20385;-60
2023/10/03 07:53:46;;;;;;;9.15;3.03;;;;;;;;;;4899805;29;20549;-59
2023/10/03 07:56:43;;;;;;;8.05;3.30;;;;;;;;;;4915755;29;20115;-61
2023/10/03 07:59:09;;;;;;;5.40;3.55;;;;;;;;;;4909350;29;20035;-59
2023/10/03 08:01:38;;;;;;;9.40;4.00;;;;;;;;;;4934636;29;20103;-60
2023/10/03 08:04:08;;;;;;;6.90;3.35;;;;;;;;;;4935542;29;20039;-59
2023/10/03 08:06:34;;;;;;;7.95;3.50;;;;;;;;;;4931427;29;20035;-60
2023/10/03 08:09:09;;;;;;;6.97;3.88;;;;;;;;;;4935143;29;20079;-58
2023/10/03 08:11:35;;;;;;;8.48;4.00;;;;;;;;;;4917253;29;20096;-60
2023/10/03 08:14:17;;;;;;;10.63;3.97;;;;;;;;;;4916395;29;20044;-60
2023/10/03 08:16:47;;;;;;;9.05;3.67;;;;;;;;;;4896730;29;20056;-60
2023/10/03 08:19:25;;;;;;;6.53;3.28;;;;;;;;;;4916632;29;20237;-60
2023/10/03 08:21:55;;;;;;;9.82;3.47;;;;;;;;;;4916051;29;20461;-61
2023/10/03 08:24:24;;;;;;;8.90;3.97;;;;;;;;;;4915670;29;20039;-60
2023/10/03 08:26:59;;;;;;;7.03;3.50;;;;;;;;;;4915922;29;20036;-60
2023/10/03 08:29:25;;;;;;;7.95;3.92;;;;;;;;;;4915239;29;20028;-60
2023/10/03 08:31:58;;;;;;;8.23;3.22;;;;;;;;;;4915593;29;20071;-60
2023/10/03 08:34:28;;;;;;;8.45;3.85;;;;;;;;;;4910762;29;20090;-60
2023/10/03 08:37:00;;;;;;;9.25;3.60;;;;;;;;;;4921582;29;20032;-60
2023/10/03 08:39:26;;;;;;;6.15;3.33;;;;;;;;;;4930463;29;20032;-60
2023/10/03 08:42:12;;;;;;;6.65;3.00;;;;;;;;;;4934595;29;20075;-60
2023/10/03 08:44:52;;;;;;;7.53;3.90;;;;;;;;;;4933313;29;20743;-60
2023/10/03 08:47:23;;;;;;;8.40;4.05;;;;;;;;;;4917903;29;20027;-60
2023/10/03 08:49:56;;;;;;;7.47;4.20;;;;;;;;;;4919904;29;20035;-60
2023/10/03 08:52:38;;;;;;;11.50;4.40;;;;;;;;;;4910104;29;20036;-60
2023/10/03 08:55:08;;;;;;;9.85;4.65;;;;;;;;;;4934909;29;20107;-61
2023/10/03 08:57:35;;;;;;;9.90;4.25;;;;;;;;;;4933167;29;20039;-61
2023/10/03 09:00:04;;;;;;;9.90;4.50;;;;;;;;;;4920280;29;20040;-61
2023/10/03 09:02:40;;;;;;;10.13;4.50;;;;;;;;;;4914508;29;20035;-60
2023/10/03 09:05:15;;;;;;;7.10;3.90;;;;;;;;;;4915244;29;20047;-59
2023/10/03 09:07:43;;;;;;;11.57;4.80;;;;;;;;;;4915144;29;20032;-60
2023/10/03 09:10:22;;;;;;;8.48;4.70;;;;;;;;;;4928026;29;20051;-59
2023/10/03 09:12:52;;;;;;;7.82;4.50;;;;;;;;;;4953100;29;20034;-59
2023/10/03 09:15:22;;;;;;;9.95;4.15;;;;;;;;;;4939498;29;20481;-60
2023/10/03 09:17:49;;;;;;;14.10;5.07;;;;;;;;;;4931910;29;20044;-60
2023/10/03 09:20:22;;;;;;;10.93;5.10;;;;;;;;;;4935398;29;20397;-60
2023/10/03 09:22:47;;;;;;;11.18;4.95;;;;;;;;;;4940572;29;20063;-60
2023/10/03 09:25:15;;;;;;;10.75;5.20;;;;;;;;;;4938963;29;20063;-60
2023/10/03 09:27:41;;;;;;;8.30;4.50;;;;;;;;;;4934033;29;20038;-60
2023/10/03 09:30:22;;;;;;;8.77;4.78;;;;;;;;;;4920957;29;20060;-60
2023/10/03 09:32:50;;;;;;;12.75;4.80;;;;;;;;;;4946066;29;20038;-60
2023/10/03 09:35:16;;;;;;;9.00;4.78;;;;;;;;;;4929020;29;20169;-60
2023/10/03 09:37:48;;;;;;;10.57;4.90;;;;;;;;;;4940207;29;20265;-60
2023/10/03 09:40:18;;;;;;;7.95;4.57;;;;;;;;;;4942697;29;20031;-60
2023/10/03 09:42:48;;;;;;;8.85;4.95;;;;;;;;;;4934053;29;20610;-60
2023/10/03 09:45:25;;;;;;;;;;;;;;;;;;4936939;29;20164;-60
2023/10/03 09:47:58;;;;;;;8.00;4.18;;;;;;;;;;4935453;29;19921;-60
2023/10/03 09:50:27;;;;;;;9.43;5.05;;;;;;;;;;4936453;29;20079;-60
2023/10/03 09:52:54;;;;;;;10.20;4.93;;;;;;;;;;4933694;29;20062;-60
2023/10/03 09:55:26;;;;;;;8.07;4.82;;;;;;;;;;4943092;29;20063;-62
2023/10/03 09:57:59;;;;;;;8.32;4.32;;;;;;;;;;4933095;29;20032;-61
2023/10/03 10:00:50;;;;;;;10.35;4.80;;;;;;;;;;4933718;29;20039;-61
2023/10/03 10:03:19;;;;;;;8.25;5.28;;;;;;;;;;4933989;29;20060;-61
2023/10/03 10:05:52;;;;;;;12.63;5.75;;;;;;;;;;4933312;29;20027;-61
2023/10/03 10:08:32;;;;;;;11.82;5.65;;;;;;;;;;4939833;29;20035;-59
2023/10/03 10:11:10;;;;;;;9.05;5.50;;;;;;;;;;4934794;29;20040;-61
2023/10/03 10:13:37;;;;;;;9.20;5.18;;;;;;;;;;4931592;29;20520;-61
2023/10/03 10:16:13;;;;;;;12.55;5.85;;;;;;;;;;4937176;29;20070;-61
2023/10/03 10:18:45;;;;;;;12.95;5.68;;;;;;;;;;4916329;29;20057;-61
2023/10/03 10:21:36;;;;;;;8.85;6.07;;;;;;;;;;4917507;29;20441;-62
2023/10/03 10:24:11;;;;;;;8.63;5.88;;;;;;;;;;4946897;29;20044;-61
2023/10/03 10:26:37;;;;;;;11.88;6.35;;;;;;;;;;4939999;29;20030;-61
2023/10/03 10:29:19;;;;;;;13.23;6.82;;;;;;;;;;4941623;29;20045;-61
2023/10/03 10:31:49;;;;;;;10.85;6.38;;;;;;;;;;4936459;29;20361;-61
2023/10/03 10:34:20;;;;;;;13.82;6.43;;;;;;;;;;4937012;29;20079;-61
2023/10/03 10:37:09;;;;;;;11.98;6.68;;;;;;;;;;4936257;29;20707;-60
2023/10/03 10:43:01;;;;;;;10.85;6.45;;;;;;;;;;4935896;29;20046;-60
2023/10/03 10:45:27;;;;;;;12.88;6.90;;;;;;;;;;4939708;29;20032;-59
2023/10/03 10:47:55;;;;;;;10.70;6.85;;;;;;;;;;4948091;29;20040;-60
2023/10/03 10:50:25;;;;;;;14.85;6.70;;;;;;;;;;4936388;29;20039;-60
2023/10/03 10:52:53;;;;;;;;;;;;;;;;;;4936424;29;20501;-60
2023/10/03 10:55:26;;;;;;;9.63;6.10;;;;;;;;;;4936391;29;20026;-59
2023/10/03 10:58:08;;;;;;;10.25;6.07;;;;;;;;;;4936422;29;20055;-59
2023/10/03 11:00:34;;;;;;;8.48;5.80;;;;;;;;;;4932988;29;20118;-60
2023/10/03 11:03:02;;;;;;;8.00;4.95;;;;;;;;;;4936194;29;20469;-60
2023/10/03 11:05:48;;;;;;;8.32;5.20;;;;;;;;;;4919084;29;20028;-60
2023/10/03 11:08:14;;;;;;;5.00;2.63;;;;;;;;;;4919463;29;20058;-58
2023/10/03 11:10:53;;;;;;;4.15;1.98;;;;;;;;;;4917796;29;20401;-61
2023/10/03 11:13:22;;;;;;;2.80;1.70;;;;;;;;;;4936554;29;20036;-59
2023/10/03 11:15:48;;;;;;;3.15;1.70;;;;;;;;;;4935409;29;20119;-59
2023/10/03 11:18:15;;;;;;;3.55;1.67;;;;;;;;;;4920524;29;20080;-60
2023/10/03 11:20:41;;;;;;;2.63;1.50;;;;;;;;;;4937379;29;20043;-60
2023/10/03 11:23:18;;;;;;;2.78;1.48;;;;;;;;;;4935728;29;20034;-61
2023/10/03 11:26:03;;;;;;;2.55;1.30;;;;;;;;;;4933692;29;20199;-60
2023/10/03 11:28:29;;;;;;;2.28;1.20;;;;;;;;;;4935733;29;20103;-61
2023/10/03 11:31:04;;;;;;;2.05;1.23;;;;;;;;;;4942050;29;20461;-60
2023/10/03 11:33:44;;;;;;;2.10;1.02;;;;;;;;;;4923429;29;20047;-61
2023/10/03 11:36:11;;;;;;;2.53;1.15;;;;;;;;;;4948118;29;20393;-59
2023/10/03 11:38:46;;;;;;;2.47;1.30;;;;;;;;;;4944183;29;20031;-59
2023/10/03 11:41:12;;;;;;;1.10;1.00;;;;;;;;;;4938817;29;20040;-59
2023/10/03 11:43:47;;;;;;;1.88;1.20;;;;;;;;;;4944089;29;20075;-57
2023/10/03 11:46:13;;;;;;;3.83;1.20;;;;;;;;;;4928496;29;20031;-58
2023/10/03 11:48:38;;;;;;;1.33;1.13;;;;;;;;;;4951511;29;20046;-59
2023/10/03 11:51:04;;;;;;;2.33;1.20;;;;;;;;;;4954507;29;20066;-59
2023/10/03 11:53:31;;;;;;;5.85;2.00;;;;;;;;;;4954621;29;20149;-60
2023/10/03 11:55:56;;;;;;;2.13;1.30;;;;;;;;;;4923742;29;20059;-59
2023/10/03 11:58:22;;;;;;;3.05;1.48;;;;;;;;;;4937363;29;20419;-60
2023/10/03 12:00:49;;;;;;;2.72;1.50;;;;;;;;;;4940518;29;20050;-64
2023/10/03 12:03:15;;;;;;;3.10;1.30;;;;;;;;;;4918718;29;20063;-60
2023/10/03 12:05:42;;;;;;;1.52;1.17;;;;;;;;;;4917865;29;20114;-60
2023/10/03 12:08:08;;;;;;;2.95;1.30;;;;;;;;;;4918342;29;20036;-58
2023/10/03 12:10:36;;;;;;;3.00;1.30;;;;;;;;;;4933658;29;20126;-60
2023/10/03 12:13:02;;;;;;;2.35;1.08;;;;;;;;;;4934911;29;20452;-59
2023/10/03 12:15:29;;;;;;;2.35;0.90;;;;;;;;;;4948746;29;20047;-58
2023/10/03 12:17:54;;;;;;;2.88;1.10;;;;;;;;;;4935879;29;20035;-60
2023/10/03 12:20:20;;;;;;;1.55;0.80;;;;;;;;;;4943518;29;20092;-58
2023/10/03 12:22:48;;;;;;;3.03;1.00;;;;;;;;;;4915300;29;20036;-58
2023/10/03 12:25:18;;;;;;;2.65;1.00;;;;;;;;;;4915643;29;20055;-59
2023/10/03 12:27:44;;;;;;;1.95;0.80;;;;;;;;;;4915184;29;20026;-60
2023/10/03 12:30:15;;;;;;;2.25;0.90;;;;;;;;;;4925447;29;20099;-59
2023/10/03 12:32:44;;;;;;;2.90;0.90;;;;;;;;;;4945270;29;20425;-61
2023/10/03 12:35:10;;;;;;;0.80;0.80;;;;;;;;;;4932615;29;20087;-60
2023/10/03 12:37:40;;;;;;;2.92;0.98;;;;;;;;;;4933058;29;20023;-61
2023/10/03 12:40:13;;;;;;;1.87;0.83;;;;;;;;;;4935649;29;20480;-60
2023/10/03 12:42:48;;;;;;;2.92;1.00;;;;;;;;;;4935844;29;20273;-61
2023/10/03 12:45:16;;;;;;;3.80;1.20;;;;;;;;;;4918036;29;20036;-60
2023/10/03 12:47:48;;;;;;;3.28;1.10;;;;;;;;;;4932489;29;20149;-59
2023/10/03 12:50:15;;;;;;;1.83;0.80;;;;;;;;;;4933780;29;20092;-56
2023/10/03 12:52:42;;;;;;;2.50;1.02;;;;;;;;;;4926107;29;20546;-60
2023/10/03 12:55:09;;;;;;;1.85;1.00;;;;;;;;;;4930056;29;20044;-59
2023/10/03 12:57:36;;;;;;;1.38;0.80;;;;;;;;;;4929986;29;20031;-60
2023/10/03 13:00:03;;;;;;;1.65;0.80;;;;;;;;;;4944716;29;20039;-59
2023/10/03 13:02:28;;;;;;;2.97;1.13;;;;;;;;;;4951953;29;20031;-58
2023/10/03 13:04:53;;;;;;;4.65;1.10;;;;;;;;;;4943896;29;20029;-62
2023/10/03 13:07:20;;;;;;;1.92;1.10;;;;;;;;;;4952303;29;20055;-60
2023/10/03 13:09:46;;;;;;;2.93;0.90;;;;;;;;;;4939379;29;20052;-60
2023/10/03 13:12:12;;;;;;;1.77;1.00;;;;;;;;;;4919685;29;20232;-59
2023/10/03 13:14:37;;;;;;;1.58;0.70;;;;;;;;;;4898151;29;20127;-59
2023/10/03 13:17:04;;;;;;;1.77;0.77;;;;;;;;;;4915022;29;20032;-60
2023/10/03 13:19:30;;;;;;;1.80;0.90;;;;;;;;;;4913255;29;20083;-55
2023/10/03 13:22:03;;;;;;;2.00;0.90;;;;;;;;;;4912591;29;20028;-60
2023/10/03 13:24:32;;;;;;;3.05;0.77;;;;;;;;;;4914465;29;20469;-60
2023/10/03 13:26:57;;;;;;;1.83;0.80;;;;;;;;;;4912521;29;20540;-61
2023/10/03 13:29:23;;;;;;;1.45;0.70;;;;;;;;;;4914622;29;20124;-60
2023/10/03 13:31:51;;;;;;;3.08;1.10;;;;;;;;;;4896600;29;20637;-60
2023/10/03 13:34:17;;;;;;;1.88;1.15;;;;;;;;;;4897222;29;20031;-60
2023/10/03 13:36:45;;;;;;;2.25;1.15;;;;;;;;;;4911407;29;20040;-60
2023/10/03 13:39:12;;;;;;;3.85;1.50;;;;;;;;;;4914508;29;20091;-60
2023/10/03 13:41:42;;;;;;;2.30;1.45;;;;;;;;;;4913877;29;20043;-58
2023/10/03 13:44:11;;;;;;;3.35;1.48;;;;;;;;;;4915008;29;20036;-60
2023/10/03 13:46:40;;;;;;;3.15;1.60;;;;;;;;;;4914292;29;20034;-59
2023/10/03 13:49:09;;;;;;;3.28;1.60;;;;;;;;;;4914639;29;20036;-59
2023/10/03 13:51:34;;;;;;;2.38;1.40;;;;;;;;;;4918976;29;20032;-58
2023/10/03 13:54:02;;;;;;;3.72;1.30;;;;;;;;;;4916510;29;20032;-59
2023/10/03 13:56:27;;;;;;;2.25;1.30;;;;;;;;;;4918318;29;20473;-59
2023/10/03 13:58:53;;;;;;;5.43;1.60;;;;;;;;;;4917112;29;20051;-58
2023/10/03 14:01:19;;;;;;;2.25;1.30;;;;;;;;;;4916197;29;20048;-60
2023/10/03 14:03:46;;;;;;;1.63;1.10;;;;;;;;;;4915247;29;20477;-60
2023/10/03 14:06:16;;;;;;;2.70;1.25;;;;;;;;;;4935045;29;20139;-59
2023/10/03 14:08:42;;;;;;;3.28;1.38;;;;;;;;;;4923252;29;20123;-60
2023/10/03 14:11:08;;;;;;;2.50;1.60;;;;;;;;;;4935271;29;20138;-59
2023/10/03 14:13:34;;;;;;;2.42;1.30;;;;;;;;;;4951369;29;20035;-57
2023/10/03 14:16:00;;;;;;;2.28;1.30;;;;;;;;;;4943044;29;20228;-59
2023/10/03 14:18:26;;;;;;;3.90;1.50;;;;;;;;;;4937123;29;20114;-57
2023/10/03 14:20:51;;;;;;;3.25;1.23;;;;;;;;;;4935581;29;20043;-60
2023/10/03 14:23:16;;;;;;;4.28;1.20;;;;;;;;;;4936606;29;20028;-60
2023/10/03 14:25:42;;;;;;;4.25;1.30;;;;;;;;;;4936475;29;20443;-60
2023/10/03 14:28:09;;;;;;;4.22;1.20;;;;;;;;;;4937246;29;20028;-59
2023/10/03 14:30:34;;;;;;;2.72;1.38;;;;;;;;;;4920123;29;20035;-59
2023/10/03 14:33:00;;;;;;;3.72;1.50;;;;;;;;;;4934045;29;20035;-59
2023/10/03 14:35:26;;;;;;;2.80;1.42;;;;;;;;;;4937055;29;20418;-59
2023/10/03 14:37:51;;;;;;;5.32;1.70;;;;;;;;;;4938124;29;20035;-58
2023/10/03 14:40:18;;;;;;;3.20;1.30;;;;;;;;;;4934638;29;20107;-59
2023/10/03 14:42:49;;;;;;;4.85;1.35;;;;;;;;;;4937734;29;20044;-59
2023/10/03 14:45:15;;;;;;;3.63;1.50;;;;;;;;;;4936855;29;20031;-60
2023/10/03 14:47:41;;;;;;;3.83;1.60;;;;;;;;;;4942583;29;20046;-59
2023/10/03 14:50:07;;;;;;;4.63;1.27;;;;;;;;;;4934080;29;20039;-59
2023/10/03 14:52:33;;;;;;;5.80;1.50;;;;;;;;;;4937915;29;20032;-57
2023/10/03 14:54:59;;;;;;;4.38;1.60;;;;;;;;;;4937555;29;20036;-57
2023/10/03 14:57:24;;;;;;;5.47;1.92;;;;;;;;;;4936308;29;20091;-57
2023/10/03 14:59:54;;;;;;;4.93;1.80;;;;;;;;;;4936157;29;20122;-58